Time;durP1;ratioP1;P1;durP2;ratioP2;P2;SDS_P1;SDS_P2;PMS_P1;PMS_P2;Temp;Humidity;BMP_temperature;BMP_pressure;BME280_temperature;BME280_humidity;BME280_pressure;Samples;Min_cycle;Max_cycle;Signal;HPM_P1;HPM_P2
2023/02/02 00:00:49;;;;;;;18.25;4.30;;;5.40;99.90;;;;;;495806;239;27415;-74
2023/02/02 00:02:50;;;;;;;21.20;5.15;;;5.40;99.90;;;;;;495844;239;27455;-78
2023/02/02 00:04:51;;;;;;;13.62;4.80;;;5.40;99.90;;;;;;495868;239;27898;-76
2023/02/02 00:06:53;;;;;;;13.43;4.70;;;5.40;99.90;;;;;;495778;239;27970;-76
2023/02/02 00:08:54;;;;;;;25.02;5.30;;;5.40;99.90;;;;;;495769;239;27594;-78
2023/02/02 00:10:56;;;;;;;21.35;5.55;;;5.40;99.90;;;;;;495858;239;27348;-77
2023/02/02 00:12:57;;;;;;;19.08;5.22;;;5.40;99.90;;;;;;495703;239;27415;-77
2023/02/02 00:14:58;;;;;;;13.07;4.37;;;5.40;99.90;;;;;;495808;239;27429;-72
2023/02/02 00:16:59;;;;;;;18.02;4.85;;;5.40;99.90;;;;;;495777;239;27478;-73
2023/02/02 00:19:00;;;;;;;18.60;4.95;;;5.40;99.90;;;;;;495847;239;28146;-73
2023/02/02 00:21:02;;;;;;;21.15;5.53;;;5.40;99.90;;;;;;495838;239;27524;-74
2023/02/02 00:23:03;;;;;;;20.83;4.97;;;5.40;99.90;;;;;;495802;239;27384;-77
2023/02/02 00:25:04;;;;;;;14.73;4.20;;;5.40;99.90;;;;;;495806;239;27448;-75
2023/02/02 00:27:05;;;;;;;19.58;5.15;;;5.40;99.90;;;;;;495803;239;27495;-76
2023/02/02 00:29:07;;;;;;;19.17;5.20;;;5.40;99.90;;;;;;495845;239;27500;-77
2023/02/02 00:31:08;;;;;;;12.43;4.68;;;5.40;99.90;;;;;;495809;239;27808;-76
2023/02/02 00:33:09;;;;;;;21.00;4.47;;;5.40;99.90;;;;;;495825;239;28003;-77
2023/02/02 00:35:10;;;;;;;19.87;4.80;;;5.40;99.90;;;;;;495806;239;27345;-75
2023/02/02 00:37:12;;;;;;;16.62;4.62;;;5.40;99.90;;;;;;495819;239;27392;-76
2023/02/02 00:39:13;;;;;;;22.55;5.78;;;5.40;99.90;;;;;;495833;239;27669;-76
2023/02/02 00:41:14;;;;;;;15.90;4.95;;;5.40;99.90;;;;;;495823;239;27453;-73
2023/02/02 00:43:15;;;;;;;17.23;4.70;;;5.40;99.90;;;;;;495800;239;27969;-75
2023/02/02 00:45:17;;;;;;;16.42;4.57;;;5.40;99.90;;;;;;495789;239;27977;-74
2023/02/02 00:47:18;;;;;;;14.63;4.20;;;5.40;99.90;;;;;;495736;239;27475;-75
2023/02/02 00:49:19;;;;;;;15.02;5.50;;;5.50;99.90;;;;;;495842;239;27525;-77
2023/02/02 00:51:20;;;;;;;16.60;4.30;;;5.50;99.90;;;;;;495798;239;27425;-76
2023/02/02 00:53:22;;;;;;;23.38;4.95;;;5.40;99.90;;;;;;495792;239;27395;-74
2023/02/02 00:55:23;;;;;;;17.52;4.57;;;5.40;99.90;;;;;;495793;239;27372;-73
2023/02/02 00:57:24;;;;;;;20.27;4.70;;;5.40;99.90;;;;;;495826;239;27836;-74
2023/02/02 00:59:25;;;;;;;20.12;4.93;;;5.50;99.90;;;;;;495862;239;27393;-75
2023/02/02 01:01:27;;;;;;;25.27;5.50;;;5.40;99.90;;;;;;495837;239;27610;-76
2023/02/02 01:03:28;;;;;;;22.02;5.60;;;5.40;99.90;;;;;;495785;239;27395;-74
2023/02/02 01:05:29;;;;;;;21.05;5.20;;;5.40;99.90;;;;;;495788;239;27449;-74
2023/02/02 01:07:31;;;;;;;27.08;5.95;;;5.40;99.90;;;;;;495814;239;27361;-76
2023/02/02 01:09:32;;;;;;;21.92;5.10;;;5.40;99.90;;;;;;495838;239;28103;-74
2023/02/02 01:11:33;;;;;;;22.70;5.43;;;5.40;99.90;;;;;;495821;239;27808;-75
2023/02/02 01:13:34;;;;;;;14.87;4.97;;;5.40;99.90;;;;;;495812;239;27468;-74
2023/02/02 01:15:36;;;;;;;14.55;5.05;;;5.40;99.90;;;;;;495762;239;27345;-73
2023/02/02 01:17:37;;;;;;;20.60;4.80;;;5.40;99.90;;;;;;495805;239;27400;-77
2023/02/02 01:19:38;;;;;;;20.65;5.50;;;5.40;99.90;;;;;;495802;239;27420;-77
2023/02/02 01:21:39;;;;;;;27.67;5.50;;;5.40;99.90;;;;;;495783;239;27360;-76
2023/02/02 01:23:41;;;;;;;23.27;5.18;;;5.40;99.90;;;;;;495805;239;27878;-77
2023/02/02 01:25:42;;;;;;;19.10;5.35;;;5.40;99.90;;;;;;495814;239;27403;-75
2023/02/02 01:27:43;;;;;;;21.92;5.00;;;5.40;99.90;;;;;;495839;239;27471;-75
2023/02/02 01:29:44;;;;;;;17.87;5.15;;;5.40;99.90;;;;;;495822;239;27422;-76
2023/02/02 01:31:46;;;;;;;27.45;5.45;;;5.40;99.90;;;;;;495825;239;27431;-76
2023/02/02 01:33:47;;;;;;;22.65;5.53;;;5.40;99.90;;;;;;495814;239;27425;-75
2023/02/02 01:35:48;;;;;;;23.45;5.85;;;5.40;99.90;;;;;;495798;239;28345;-74
2023/02/02 01:37:49;;;;;;;16.75;5.47;;;5.40;99.90;;;;;;495864;239;27799;-74
2023/02/02 01:39:51;;;;;;;22.05;5.05;;;5.40;99.90;;;;;;495850;239;27412;-77
2023/02/02 01:41:52;;;;;;;30.52;5.95;;;5.40;99.90;;;;;;495818;239;27424;-75
2023/02/02 01:43:53;;;;;;;27.75;5.47;;;5.40;99.90;;;;;;495811;239;27376;-77
2023/02/02 01:45:54;;;;;;;23.15;5.75;;;5.40;99.90;;;;;;495867;239;27779;-77
2023/02/02 01:47:56;;;;;;;19.67;5.95;;;5.40;99.90;;;;;;495868;239;27508;-76
2023/02/02 01:49:57;;;;;;;17.55;4.87;;;5.40;99.90;;;;;;495804;239;27979;-75
2023/02/02 01:51:58;;;;;;;19.58;6.07;;;5.40;99.90;;;;;;495810;239;27921;-73
2023/02/02 01:53:59;;;;;;;18.52;4.47;;;5.40;99.90;;;;;;495789;239;27379;-76
2023/02/02 01:56:01;;;;;;;24.67;5.22;;;5.40;99.90;;;;;;495715;240;27384;-77
2023/02/02 01:58:02;;;;;;;25.08;4.65;;;5.40;99.90;;;;;;495679;239;27444;-75
2023/02/02 02:00:03;;;;;;;23.98;4.65;;;5.40;99.90;;;;;;495821;239;27466;-76
2023/02/02 02:02:05;;;;;;;15.95;4.95;;;5.40;99.90;;;;;;495800;239;27432;-76
2023/02/02 02:04:06;;;;;;;25.52;5.40;;;5.40;99.90;;;;;;495787;239;27896;-77
2023/02/02 02:06:07;;;;;;;24.83;4.80;;;5.40;99.90;;;;;;495819;239;27476;-76
2023/02/02 02:08:08;;;;;;;27.60;5.50;;;5.40;99.90;;;;;;495774;239;27341;-77
2023/02/02 02:10:10;;;;;;;12.85;4.70;;;5.40;99.90;;;;;;495809;239;27411;-76
2023/02/02 02:12:14;;;;;;;16.12;4.30;;;5.40;99.90;;;;;;495807;239;27359;-76
2023/02/02 02:16:31;;;;;;;24.23;4.62;;;5.40;99.90;;;;;;495836;239;27881;-75
2023/02/02 02:18:33;;;;;;;23.92;4.60;;;5.40;99.90;;;;;;495826;239;27453;-75
2023/02/02 02:27:33;;;;;;;25.83;5.07;;;5.50;99.90;;;;;;495829;239;27993;-74
2023/02/02 02:29:34;;;;;;;17.27;4.20;;;5.50;99.90;;;;;;495848;239;27935;-75
2023/02/02 02:31:35;;;;;;;21.10;4.43;;;5.50;99.90;;;;;;495824;239;27439;-74
2023/02/02 02:33:37;;;;;;;18.15;4.72;;;5.50;99.90;;;;;;495798;239;27415;-73
2023/02/02 02:35:38;;;;;;;11.70;4.70;;;5.50;99.90;;;;;;495871;239;27797;-74
2023/02/02 02:37:39;;;;;;;21.58;5.62;;;5.50;99.90;;;;;;495818;239;27370;-73
2023/02/02 02:39:40;;;;;;;14.48;5.03;;;5.50;99.90;;;;;;495835;239;27579;-74
2023/02/02 02:41:42;;;;;;;12.27;4.85;;;5.50;99.90;;;;;;495835;239;27888;-73
2023/02/02 02:43:43;;;;;;;14.70;4.53;;;5.50;99.90;;;;;;495824;239;27894;-73
2023/02/02 02:45:44;;;;;;;14.80;5.70;;;5.60;99.90;;;;;;495836;239;27459;-75
2023/02/02 02:47:45;;;;;;;16.10;4.45;;;5.50;99.90;;;;;;495820;239;27543;-77
2023/02/02 02:49:47;;;;;;;10.10;3.70;;;5.50;99.90;;;;;;495824;239;27523;-76
2023/02/02 02:51:48;;;;;;;19.80;4.70;;;5.50;99.90;;;;;;495796;239;27531;-77
2023/02/02 02:53:49;;;;;;;14.77;4.47;;;5.50;99.90;;;;;;495866;239;27459;-74
2023/02/02 02:55:50;;;;;;;18.73;4.75;;;5.60;99.90;;;;;;495852;239;27966;-74
2023/02/02 02:57:52;;;;;;;16.67;4.57;;;5.60;99.90;;;;;;495726;239;27455;-76
2023/02/02 02:59:53;;;;;;;17.55;5.43;;;5.50;99.90;;;;;;495817;239;27491;-73
2023/02/02 03:01:54;;;;;;;16.55;5.20;;;5.60;99.90;;;;;;495836;239;27554;-73
2023/02/02 03:03:56;;;;;;;11.10;4.10;;;5.60;99.90;;;;;;495851;239;27455;-75
2023/02/02 03:05:57;;;;;;;23.52;5.28;;;5.60;99.90;;;;;;495864;239;27617;-77
2023/02/02 03:07:58;;;;;;;13.80;4.90;;;5.60;99.90;;;;;;495863;239;27942;-76
2023/02/02 03:10:00;;;;;;;13.95;4.50;;;5.60;99.90;;;;;;495855;239;28077;-76
2023/02/02 03:12:01;;;;;;;19.08;5.12;;;5.60;99.90;;;;;;495828;239;27440;-76
2023/02/02 03:14:02;;;;;;;14.98;4.68;;;5.50;99.90;;;;;;495882;239;27375;-77
2023/02/02 03:16:03;;;;;;;19.20;4.72;;;5.50;99.90;;;;;;495865;239;27495;-74
2023/02/02 03:18:04;;;;;;;22.15;5.53;;;5.50;99.90;;;;;;495757;239;27336;-75
2023/02/02 03:20:06;;;;;;;11.55;4.57;;;5.60;99.90;;;;;;495780;239;27490;-77
2023/02/02 03:22:07;;;;;;;17.52;4.87;;;5.60;99.90;;;;;;495779;239;28571;-77
2023/02/02 03:24:08;;;;;;;29.83;6.05;;;5.60;99.90;;;;;;495817;239;27825;-76
2023/02/02 03:26:09;;;;;;;17.50;4.75;;;5.50;99.90;;;;;;495846;239;27519;-77
2023/02/02 03:28:11;;;;;;;15.43;4.95;;;5.50;99.90;;;;;;495813;239;27455;-76
2023/02/02 03:30:12;;;;;;;25.25;5.35;;;5.50;99.90;;;;;;495800;239;27578;-72
2023/02/02 03:32:13;;;;;;;15.85;4.25;;;5.50;99.90;;;;;;495782;239;27476;-76
2023/02/02 03:34:14;;;;;;;19.33;4.97;;;5.60;99.90;;;;;;495851;239;27352;-76
2023/02/02 03:36:16;;;;;;;14.95;4.28;;;5.50;99.90;;;;;;495841;239;27859;-76
2023/02/02 03:38:17;;;;;;;12.75;4.03;;;5.50;99.90;;;;;;495797;239;27400;-74
2023/02/02 03:40:18;;;;;;;15.32;4.47;;;5.50;99.90;;;;;;495806;239;27404;-74
2023/02/02 03:42:19;;;;;;;13.60;4.50;;;5.60;99.90;;;;;;495847;239;27512;-75
2023/02/02 03:44:21;;;;;;;15.88;5.00;;;5.50;99.90;;;;;;495835;239;27472;-77
2023/02/02 03:46:22;;;;;;;15.13;4.68;;;5.60;99.90;;;;;;495840;239;27470;-76
2023/02/02 03:48:23;;;;;;;12.75;5.10;;;5.50;99.90;;;;;;495835;239;28006;-76
2023/02/02 03:50:24;;;;;;;23.23;4.70;;;5.50;99.90;;;;;;495809;239;27978;-76
2023/02/02 03:52:26;;;;;;;10.65;4.47;;;5.60;99.90;;;;;;495868;239;27419;-77
2023/02/02 03:54:27;;;;;;;13.68;4.40;;;5.50;99.90;;;;;;495845;239;27384;-76
2023/02/02 03:56:28;;;;;;;16.85;4.97;;;5.50;99.90;;;;;;495752;239;27396;-73
2023/02/02 03:58:30;;;;;;;12.82;4.40;;;5.50;99.90;;;;;;495804;239;27429;-73
2023/02/02 04:00:31;;;;;;;21.60;5.30;;;5.50;99.90;;;;;;495832;239;27388;-73
2023/02/02 04:02:32;;;;;;;16.73;4.57;;;5.50;99.90;;;;;;495835;239;28079;-77
2023/02/02 04:04:33;;;;;;;14.15;4.87;;;5.50;99.90;;;;;;495828;239;27527;-77
2023/02/02 04:06:35;;;;;;;15.32;4.32;;;5.50;99.90;;;;;;495832;239;27503;-76
2023/02/02 04:08:38;;;;;;;10.43;4.07;;;5.50;99.90;;;;;;495826;239;27435;-75
2023/02/02 04:10:41;;;;;;;11.55;4.30;;;5.40;99.90;;;;;;495676;239;27510;-76
2023/02/02 04:12:38;;;;;;;16.20;4.47;;;5.50;99.90;;;;;;495423;239;27463;-73
2023/02/02 04:14:40;;;;;;;16.67;4.72;;;5.50;99.90;;;;;;495824;239;27921;-73
2023/02/02 04:16:41;;;;;;;10.60;4.47;;;5.50;99.90;;;;;;495713;239;27974;-76
2023/02/02 04:18:42;;;;;;;16.95;4.55;;;5.50;99.90;;;;;;495821;239;27349;-74
2023/02/02 04:20:43;;;;;;;14.77;5.30;;;5.50;99.90;;;;;;495837;239;27384;-73
2023/02/02 04:22:45;;;;;;;17.52;4.20;;;5.40;99.90;;;;;;495844;239;27384;-74
2023/02/02 04:24:46;;;;;;;12.50;5.20;;;5.50;99.90;;;;;;495822;239;27356;-74
2023/02/02 04:26:47;;;;;;;13.77;4.37;;;5.50;99.90;;;;;;495806;239;27596;-73
2023/02/02 04:28:48;;;;;;;17.15;4.55;;;5.50;99.90;;;;;;495827;239;28589;-74
2023/02/02 04:30:50;;;;;;;15.88;4.35;;;5.50;99.90;;;;;;495828;239;27914;-74
2023/02/02 04:32:51;;;;;;;12.45;4.62;;;5.50;99.90;;;;;;495838;239;27487;-74
2023/02/02 04:34:52;;;;;;;19.40;5.30;;;5.50;99.90;;;;;;495805;239;27354;-74
2023/02/02 04:36:54;;;;;;;16.65;4.37;;;5.50;99.90;;;;;;495817;239;27400;-77
2023/02/02 04:38:55;;;;;;;19.25;5.70;;;5.50;99.90;;;;;;495776;239;27368;-77
2023/02/02 04:40:56;;;;;;;24.00;5.45;;;5.40;99.90;;;;;;495847;239;27456;-77
2023/02/02 04:42:57;;;;;;;14.05;4.90;;;5.40;99.90;;;;;;495845;239;27984;-77
2023/02/02 04:44:59;;;;;;;12.37;4.25;;;5.40;99.90;;;;;;495814;239;27906;-73
2023/02/02 04:47:00;;;;;;;18.45;6.45;;;5.50;99.90;;;;;;495820;239;27511;-75
2023/02/02 04:49:01;;;;;;;12.93;4.57;;;5.40;99.90;;;;;;495853;239;27502;-78
2023/02/02 04:51:02;;;;;;;16.02;4.78;;;5.40;99.90;;;;;;495857;239;27916;-77
2023/02/02 04:53:04;;;;;;;16.65;5.45;;;5.40;99.90;;;;;;495858;239;27935;-73
2023/02/02 04:55:05;;;;;;;16.00;4.50;;;5.40;99.90;;;;;;495830;239;27441;-73
2023/02/02 04:57:06;;;;;;;13.90;5.40;;;5.40;99.90;;;;;;495817;239;27479;-77
2023/02/02 04:59:07;;;;;;;16.23;4.72;;;5.40;99.90;;;;;;495873;239;27750;-76
2023/02/02 05:01:09;;;;;;;21.40;4.53;;;5.40;99.90;;;;;;495874;239;27455;-78
2023/02/02 05:03:10;;;;;;;18.20;5.30;;;5.50;99.90;;;;;;495848;239;27387;-78
2023/02/02 05:05:11;;;;;;;11.60;4.43;;;5.40;99.90;;;;;;495821;239;27895;-73
2023/02/02 05:07:12;;;;;;;21.83;4.12;;;5.40;99.90;;;;;;495794;239;27545;-73
2023/02/02 05:09:14;;;;;;;14.00;4.62;;;5.40;99.90;;;;;;495835;239;27464;-75
2023/02/02 05:11:15;;;;;;;13.13;4.50;;;5.40;99.90;;;;;;495811;239;27344;-74
2023/02/02 05:13:16;;;;;;;15.48;5.25;;;5.40;99.90;;;;;;495816;239;27432;-77
2023/02/02 05:15:17;;;;;;;18.08;5.07;;;5.40;99.90;;;;;;495787;239;27408;-71
2023/02/02 05:17:19;;;;;;;11.12;4.18;;;5.40;99.90;;;;;;495823;239;27395;-75
2023/02/02 05:19:20;;;;;;;14.18;4.20;;;5.40;99.90;;;;;;495840;239;27927;-78
2023/02/02 05:21:21;;;;;;;18.83;4.32;;;5.40;99.90;;;;;;495822;239;27359;-74
2023/02/02 05:23:22;;;;;;;15.70;3.97;;;5.40;99.90;;;;;;495807;239;27388;-76
2023/02/02 05:25:24;;;;;;;22.23;4.90;;;5.40;99.90;;;;;;495816;239;27472;-76
2023/02/02 05:27:25;;;;;;;17.40;4.65;;;5.40;99.90;;;;;;495838;239;27371;-76
2023/02/02 05:29:26;;;;;;;21.42;4.32;;;5.40;99.90;;;;;;495821;239;27511;-75
2023/02/02 05:31:28;;;;;;;11.73;4.18;;;5.40;99.90;;;;;;495814;239;27977;-77
2023/02/02 05:33:29;;;;;;;24.75;4.20;;;5.40;99.90;;;;;;495739;239;27905;-77
2023/02/02 05:35:30;;;;;;;16.87;4.20;;;5.40;99.90;;;;;;495829;239;27412;-77
2023/02/02 05:37:31;;;;;;;11.30;4.30;;;5.40;99.90;;;;;;495823;239;27405;-76
2023/02/02 05:39:32;;;;;;;14.50;4.00;;;5.40;99.90;;;;;;495795;239;27404;-76
2023/02/02 05:41:34;;;;;;;15.55;4.10;;;5.40;99.90;;;;;;495800;239;27357;-77
2023/02/02 05:43:35;;;;;;;11.27;4.20;;;5.40;99.90;;;;;;495771;239;27511;-76
2023/02/02 05:45:36;;;;;;;20.90;4.82;;;5.40;99.90;;;;;;495840;239;27942;-77
2023/02/02 05:47:38;;;;;;;13.38;4.18;;;5.40;99.90;;;;;;495850;239;27987;-76
2023/02/02 05:49:39;;;;;;;19.00;4.62;;;5.40;99.90;;;;;;495809;239;27392;-77
2023/02/02 05:51:40;;;;;;;17.62;5.37;;;5.40;99.90;;;;;;495816;239;27425;-76
2023/02/02 05:53:43;;;;;;;20.35;4.72;;;5.40;99.90;;;;;;495814;239;27562;-76
2023/02/02 05:55:43;;;;;;;11.60;4.32;;;5.40;99.90;;;;;;495727;239;27384;-77
2023/02/02 05:57:44;;;;;;;10.52;4.20;;;5.40;99.90;;;;;;495819;239;27825;-76
2023/02/02 05:59:46;;;;;;;13.48;4.30;;;5.40;99.90;;;;;;495799;239;27973;-74
2023/02/02 06:01:46;;;;;;;18.67;4.82;;;5.40;99.90;;;;;;495830;239;27441;-73
2023/02/02 06:03:48;;;;;;;16.23;4.50;;;5.50;99.90;;;;;;495859;239;27504;-75
2023/02/02 06:05:49;;;;;;;11.27;4.80;;;5.50;99.90;;;;;;495855;239;27577;-77
2023/02/02 06:07:50;;;;;;;20.23;5.20;;;5.40;99.90;;;;;;495829;240;27550;-73
2023/02/02 06:09:51;;;;;;;13.65;4.65;;;5.50;99.90;;;;;;495860;239;28016;-73
2023/02/02 06:11:53;;;;;;;12.60;4.32;;;5.50;99.90;;;;;;495843;239;27915;-73
2023/02/02 06:13:54;;;;;;;14.35;4.20;;;5.40;99.90;;;;;;495826;239;27467;-74
2023/02/02 06:15:55;;;;;;;18.98;4.60;;;5.40;99.90;;;;;;495878;239;27495;-77
2023/02/02 06:17:57;;;;;;;15.85;4.80;;;5.40;99.90;;;;;;495827;239;27570;-76
2023/02/02 06:19:58;;;;;;;15.90;4.43;;;5.40;99.90;;;;;;495842;239;27535;-77
2023/02/02 06:21:59;;;;;;;17.60;4.70;;;5.40;99.90;;;;;;495829;239;27436;-77
2023/02/02 06:24:00;;;;;;;30.37;5.75;;;5.40;99.90;;;;;;495873;239;27920;-78
2023/02/02 06:26:02;;;;;;;24.65;5.50;;;5.40;99.90;;;;;;495865;239;27961;-74
2023/02/02 06:28:03;;;;;;;16.10;5.50;;;5.40;99.90;;;;;;495820;239;27535;-73
2023/02/02 06:30:04;;;;;;;14.82;5.22;;;5.40;99.90;;;;;;495841;239;27585;-73
2023/02/02 06:32:05;;;;;;;21.35;5.93;;;5.40;99.90;;;;;;495815;239;27491;-77
2023/02/02 06:34:07;;;;;;;17.25;4.90;;;5.40;99.90;;;;;;495829;239;27361;-74
2023/02/02 06:36:08;;;;;;;21.95;5.18;;;5.40;99.90;;;;;;495843;239;27515;-74
2023/02/02 06:38:10;;;;;;;15.93;5.10;;;5.40;99.90;;;;;;495819;239;27916;-72
2023/02/02 06:40:10;;;;;;;13.20;5.05;;;5.40;99.90;;;;;;495793;239;27415;-77
2023/02/02 06:42:12;;;;;;;22.85;5.55;;;5.40;99.90;;;;;;495870;239;27502;-74
2023/02/02 06:44:14;;;;;;;16.77;4.57;;;5.40;99.90;;;;;;495849;239;27448;-75
2023/02/02 06:46:14;;;;;;;18.15;4.60;;;5.40;99.90;;;;;;495819;239;27388;-77
2023/02/02 06:48:15;;;;;;;17.37;5.03;;;5.40;99.90;;;;;;495865;239;27456;-74
2023/02/02 06:50:17;;;;;;;23.20;4.93;;;5.50;99.90;;;;;;495841;239;27503;-73
2023/02/02 06:52:18;;;;;;;16.75;5.37;;;5.40;99.90;;;;;;495880;239;27966;-74
2023/02/02 06:54:19;;;;;;;20.15;4.90;;;5.40;99.90;;;;;;495876;239;27554;-73
2023/02/02 06:56:21;;;;;;;21.65;4.82;;;5.50;99.90;;;;;;495836;239;27484;-77
2023/02/02 06:58:22;;;;;;;17.45;5.07;;;5.50;99.90;;;;;;495798;239;27463;-74
2023/02/02 07:00:23;;;;;;;18.58;5.12;;;5.50;99.90;;;;;;495792;239;27396;-73
2023/02/02 07:02:24;;;;;;;17.52;4.93;;;5.50;99.90;;;;;;495861;239;27783;-78
2023/02/02 07:04:25;;;;;;;21.75;5.03;;;5.50;99.90;;;;;;495823;239;27456;-77
2023/02/02 07:06:27;;;;;;;17.37;4.78;;;5.50;99.90;;;;;;495826;239;27979;-75
2023/02/02 07:08:28;;;;;;;13.38;5.30;;;5.50;99.90;;;;;;495797;239;28170;-74
2023/02/02 07:10:29;;;;;;;17.37;4.50;;;5.50;99.90;;;;;;495825;239;27498;-75
2023/02/02 07:12:30;;;;;;;12.05;4.07;;;5.50;99.90;;;;;;495840;239;27592;-75
2023/02/02 07:14:32;;;;;;;19.27;4.55;;;5.50;99.90;;;;;;495823;239;27523;-76
2023/02/02 07:16:33;;;;;;;19.55;4.37;;;5.50;99.90;;;;;;495812;239;27471;-74
2023/02/02 07:18:35;;;;;;;15.70;4.68;;;5.50;99.90;;;;;;495826;239;27369;-77
2023/02/02 07:20:35;;;;;;;15.20;4.25;;;5.50;99.90;;;;;;495780;239;28080;-77
2023/02/02 07:22:37;;;;;;;18.40;4.53;;;5.50;99.90;;;;;;495856;239;27484;-74
2023/02/02 07:24:38;;;;;;;17.05;4.65;;;5.50;99.90;;;;;;495827;239;27376;-73
2023/02/02 07:26:39;;;;;;;14.07;4.70;;;5.50;99.90;;;;;;495818;239;27511;-75
2023/02/02 07:28:40;;;;;;;20.35;5.37;;;5.50;99.90;;;;;;495819;239;27363;-73
2023/02/02 07:30:42;;;;;;;15.80;4.90;;;5.50;99.90;;;;;;495821;239;27503;-76
2023/02/02 07:32:43;;;;;;;22.98;5.95;;;5.50;99.90;;;;;;495849;239;28087;-77
2023/02/02 07:34:44;;;;;;;19.20;4.75;;;5.50;99.90;;;;;;495839;239;28029;-77
2023/02/02 07:36:45;;;;;;;14.18;4.22;;;5.50;99.90;;;;;;495823;239;27480;-77
2023/02/02 07:38:47;;;;;;;26.33;6.25;;;5.50;99.90;;;;;;495696;239;27440;-76
2023/02/02 07:40:48;;;;;;;12.15;5.65;;;5.50;99.90;;;;;;495816;239;27574;-77
2023/02/02 07:42:49;;;;;;;16.10;5.18;;;5.50;99.90;;;;;;495865;239;27488;-77
2023/02/02 07:44:51;;;;;;;18.77;4.20;;;5.50;99.90;;;;;;495877;239;27459;-76
2023/02/02 07:46:52;;;;;;;16.62;5.30;;;5.60;99.90;;;;;;495814;239;27933;-77
2023/02/02 07:48:54;;;;;;;12.32;4.40;;;5.60;99.90;;;;;;495808;239;27823;-77
2023/02/02 07:50:54;;;;;;;20.83;5.00;;;5.60;99.90;;;;;;495770;239;27507;-77
2023/02/02 07:52:56;;;;;;;16.65;4.95;;;5.60;99.90;;;;;;495875;239;27492;-77
2023/02/02 07:54:57;;;;;;;21.40;5.72;;;5.60;99.90;;;;;;495826;239;27427;-77
2023/02/02 07:56:59;;;;;;;30.90;5.43;;;5.60;99.90;;;;;;495807;239;27602;-73
2023/02/02 07:58:59;;;;;;;11.95;4.20;;;5.60;99.90;;;;;;495770;239;27832;-77
2023/02/02 08:01:01;;;;;;;20.08;5.15;;;5.60;99.90;;;;;;495809;239;27874;-77
2023/02/02 08:03:02;;;;;;;14.20;4.78;;;5.60;99.90;;;;;;495854;239;27488;-74
2023/02/02 08:05:05;;;;;;;15.13;4.50;;;5.60;99.90;;;;;;495852;239;27445;-73
2023/02/02 08:07:04;;;;;;;25.15;5.10;;;5.60;99.90;;;;;;495730;239;27497;-77
2023/02/02 08:09:09;;;;;;;22.60;5.22;;;5.60;99.90;;;;;;495819;239;27463;-74
2023/02/02 08:11:07;;;;;;;21.52;5.80;;;5.70;99.90;;;;;;495653;239;27472;-74
2023/02/02 08:13:08;;;;;;;17.98;5.15;;;5.60;99.90;;;;;;495853;239;28050;-77
2023/02/02 08:15:11;;;;;;;20.15;4.87;;;5.60;99.90;;;;;;495839;239;27443;-76
2023/02/02 08:17:11;;;;;;;22.98;5.12;;;5.70;99.90;;;;;;495791;239;27474;-74
2023/02/02 08:19:12;;;;;;;18.67;4.50;;;5.70;99.90;;;;;;495841;239;27361;-76
2023/02/02 08:21:13;;;;;;;15.77;5.60;;;5.70;99.90;;;;;;495858;239;27418;-77
2023/02/02 08:23:15;;;;;;;22.15;5.20;;;5.80;99.90;;;;;;495833;239;27414;-76
2023/02/02 08:25:16;;;;;;;14.90;5.07;;;5.80;99.90;;;;;;495759;239;27828;-73
2023/02/02 08:27:17;;;;;;;18.95;4.95;;;5.80;99.90;;;;;;495756;239;27494;-73
2023/02/02 08:29:18;;;;;;;15.98;4.68;;;5.80;99.90;;;;;;495759;239;27625;-73
2023/02/02 08:31:20;;;;;;;15.65;4.75;;;5.90;99.90;;;;;;495836;239;27367;-73
2023/02/02 08:33:21;;;;;;;17.65;5.15;;;5.90;99.90;;;;;;495796;239;27400;-74
2023/02/02 08:35:22;;;;;;;17.02;5.10;;;5.80;99.90;;;;;;495822;239;27449;-76
2023/02/02 08:37:23;;;;;;;18.45;5.72;;;5.90;99.90;;;;;;495780;239;27904;-76
2023/02/02 08:39:25;;;;;;;12.02;4.53;;;5.80;99.90;;;;;;495812;239;27433;-76
2023/02/02 08:41:26;;;;;;;17.95;5.05;;;5.80;99.90;;;;;;495832;239;27365;-73
2023/02/02 08:43:27;;;;;;;10.82;4.05;;;5.80;99.90;;;;;;495846;239;27510;-74
2023/02/02 08:45:28;;;;;;;17.02;4.72;;;5.80;99.90;;;;;;495829;239;27506;-76
2023/02/02 08:47:30;;;;;;;14.57;4.35;;;5.80;99.90;;;;;;495819;239;27495;-77
2023/02/02 08:49:31;;;;;;;15.35;4.30;;;5.80;99.90;;;;;;495823;239;28589;-75
2023/02/02 08:51:32;;;;;;;18.83;4.80;;;5.80;99.90;;;;;;495837;239;27903;-77
2023/02/02 08:53:33;;;;;;;19.27;5.53;;;5.80;99.90;;;;;;495833;239;27503;-75
2023/02/02 08:55:35;;;;;;;14.20;4.70;;;5.80;99.90;;;;;;495802;239;27352;-76
2023/02/02 08:57:36;;;;;;;19.37;4.40;;;5.80;99.90;;;;;;495810;239;27392;-76
2023/02/02 08:59:37;;;;;;;13.00;5.18;;;5.80;99.90;;;;;;495822;239;27411;-75
2023/02/02 09:01:38;;;;;;;17.40;5.20;;;5.80;99.90;;;;;;495844;239;27871;-77
2023/02/02 09:03:40;;;;;;;19.55;4.87;;;5.80;99.90;;;;;;495837;239;27862;-76
2023/02/02 09:05:41;;;;;;;19.02;5.22;;;5.80;99.90;;;;;;495793;239;27431;-74
2023/02/02 09:07:42;;;;;;;14.52;3.97;;;5.80;99.90;;;;;;495791;239;27392;-76
2023/02/02 09:09:43;;;;;;;15.50;4.40;;;5.80;99.90;;;;;;495821;239;27484;-77
2023/02/02 09:11:45;;;;;;;16.65;4.70;;;5.70;99.90;;;;;;495807;239;27339;-73
2023/02/02 09:13:47;;;;;;;11.95;4.62;;;5.80;99.90;;;;;;495824;239;27427;-76
2023/02/02 09:15:47;;;;;;;11.90;4.00;;;5.80;99.90;;;;;;495760;239;27883;-75
2023/02/02 09:17:48;;;;;;;18.55;4.57;;;5.80;99.90;;;;;;495807;239;27498;-73
2023/02/02 09:19:50;;;;;;;19.37;4.62;;;5.80;99.90;;;;;;495828;239;27490;-74
2023/02/02 09:21:51;;;;;;;16.37;4.43;;;5.80;99.90;;;;;;495824;239;27344;-73
2023/02/02 09:23:52;;;;;;;21.15;4.80;;;5.90;99.90;;;;;;495807;239;27499;-76
2023/02/02 09:25:54;;;;;;;13.23;3.85;;;6.00;99.90;;;;;;495818;239;27478;-76
2023/02/02 09:27:55;;;;;;;20.42;4.20;;;6.10;99.90;;;;;;494509;239;36381;-76
2023/02/02 09:29:56;;;;;;;11.25;3.97;;;6.10;99.90;;;;;;495855;239;28055;-76
2023/02/02 09:31:57;;;;;;;15.88;4.57;;;6.20;99.90;;;;;;495850;239;27348;-76
2023/02/02 09:33:59;;;;;;;13.85;4.68;;;6.30;99.90;;;;;;495820;239;27514;-78
2023/02/02 09:36:00;;;;;;;18.65;4.30;;;6.20;99.90;;;;;;495836;239;27427;-72
2023/02/02 09:38:01;;;;;;;21.10;5.30;;;6.20;99.90;;;;;;495836;239;27478;-74
2023/02/02 09:40:02;;;;;;;9.93;4.15;;;6.20;99.90;;;;;;495856;239;28030;-75
2023/02/02 09:42:04;;;;;;;14.15;5.47;;;6.20;99.90;;;;;;495880;239;27835;-75
2023/02/02 09:44:05;;;;;;;20.00;4.90;;;6.20;99.90;;;;;;495854;239;27488;-74
2023/02/02 09:46:06;;;;;;;10.77;4.30;;;6.20;99.90;;;;;;495855;239;27360;-74
2023/02/02 09:48:07;;;;;;;11.70;4.03;;;6.20;99.90;;;;;;495843;239;28901;-74
2023/02/02 09:50:09;;;;;;;13.77;4.65;;;6.20;99.90;;;;;;495881;239;27741;-74
2023/02/02 09:52:10;;;;;;;15.50;4.90;;;6.20;99.90;;;;;;495884;239;27926;-74
2023/02/02 09:54:11;;;;;;;24.37;5.53;;;6.40;99.90;;;;;;495823;239;27930;-77
2023/02/02 09:56:12;;;;;;;15.30;4.65;;;6.40;99.90;;;;;;495805;239;27367;-74
2023/02/02 09:58:14;;;;;;;19.42;4.50;;;6.40;99.90;;;;;;495815;239;27380;-76
2023/02/02 10:00:15;;;;;;;10.57;4.75;;;6.40;99.90;;;;;;495858;239;27784;-76
2023/02/02 10:02:16;;;;;;;20.30;4.30;;;6.30;99.90;;;;;;495836;239;27337;-76
2023/02/02 10:04:17;;;;;;;23.38;4.97;;;6.30;99.90;;;;;;495825;239;28645;-75
2023/02/02 10:06:19;;;;;;;14.13;4.60;;;6.30;99.90;;;;;;495789;239;27866;-73
2023/02/02 10:08:20;;;;;;;11.93;4.28;;;6.20;99.90;;;;;;495816;239;27492;-74
2023/02/02 10:10:21;;;;;;;14.48;4.50;;;6.30;99.90;;;;;;495797;239;27467;-76
2023/02/02 10:12:23;;;;;;;13.38;3.90;;;6.30;99.90;;;;;;495786;239;27439;-74
2023/02/02 10:14:24;;;;;;;7.90;4.12;;;6.30;99.90;;;;;;495782;239;27462;-73
2023/02/02 10:16:25;;;;;;;16.23;4.90;;;6.30;99.90;;;;;;495771;239;27908;-76
2023/02/02 10:18:26;;;;;;;9.07;4.37;;;6.20;99.90;;;;;;495834;239;27872;-77
2023/02/02 10:20:28;;;;;;;11.10;3.97;;;6.20;99.90;;;;;;495834;239;27399;-77
2023/02/02 10:22:29;;;;;;;12.48;3.92;;;6.30;99.90;;;;;;495804;239;27384;-74
2023/02/02 10:24:30;;;;;;;11.23;4.05;;;6.30;99.90;;;;;;495806;239;27444;-73
2023/02/02 10:26:31;;;;;;;10.68;4.60;;;6.40;99.90;;;;;;495823;239;27358;-77
2023/02/02 10:28:33;;;;;;;10.10;3.85;;;6.40;99.90;;;;;;495829;239;27922;-74
2023/02/02 10:30:34;;;;;;;20.75;3.87;;;6.50;99.90;;;;;;495820;239;27903;-74
2023/02/02 10:32:35;;;;;;;12.20;4.62;;;6.40;99.90;;;;;;495823;239;27353;-76
2023/02/02 10:34:36;;;;;;;14.75;4.45;;;6.50;99.90;;;;;;495817;239;27598;-73
2023/02/02 10:36:38;;;;;;;14.32;4.20;;;6.40;99.90;;;;;;495830;239;27439;-77
2023/02/02 10:38:39;;;;;;;22.23;5.00;;;6.40;99.90;;;;;;495807;239;27848;-76
2023/02/02 10:40:40;;;;;;;16.00;5.13;;;6.40;99.90;;;;;;495820;239;28676;-77